Time;durP1;ratioP1;P1;durP2;ratioP2;P2;SDS_P1;SDS_P2;PMS_P1;PMS_P2;Temp;Humidity;BMP_temperature;BMP_pressure;BME280_temperature;BME280_humidity;BME280_pressure;Samples;Min_cycle;Max_cycle;Signal;HPM_P1;HPM_P2
2022/03/12 00:00:09;;;;;;;11.10;5.70;;;0.30;28.50;;;;;;5026510;28;46422;-64
2022/03/12 00:02:35;;;;;;;11.75;5.63;;;0.20;28.60;;;;;;5028674;28;46115;-63
2022/03/12 00:05:07;;;;;;;15.03;4.90;;;0.20;28.60;;;;;;5030016;28;46312;-64
2022/03/12 00:07:34;;;;;;;11.80;5.40;;;0.20;28.70;;;;;;5034172;28;46412;-64
2022/03/12 00:10:00;;;;;;;11.32;5.60;;;0.20;28.80;;;;;;5032622;28;46449;-64
2022/03/12 00:12:30;;;;;;;7.28;4.13;;;0.20;28.70;;;;;;5032554;28;46429;-64
2022/03/12 00:14:56;;;;;;;9.00;4.97;;;0.10;28.70;;;;;;5034156;28;46466;-61
2022/03/12 00:17:27;;;;;;;11.90;4.95;;;0.20;28.70;;;;;;5032474;28;46350;-64
2022/03/12 00:19:54;;;;;;;21.92;5.30;;;0.20;28.70;;;;;;5027890;28;46344;-63
2022/03/12 00:22:20;;;;;;;7.22;4.47;;;0.20;28.60;;;;;;5031994;28;46054;-63
2022/03/12 00:24:46;;;;;;;16.92;5.78;;;0.10;28.70;;;;;;5030437;28;46363;-62
2022/03/12 00:27:13;;;;;;;12.40;5.40;;;0.10;28.70;;;;;;5027372;28;46367;-62
2022/03/12 00:29:38;;;;;;;11.35;4.93;;;0.00;28.80;;;;;;5030162;28;46520;-63
2022/03/12 00:32:05;;;;;;;10.60;5.57;;;0.00;28.70;;;;;;5030456;28;46469;-63
2022/03/12 00:34:31;;;;;;;14.27;5.20;;;0.00;28.70;;;;;;5031406;28;45871;-63
2022/03/12 00:36:57;;;;;;;10.18;5.25;;;0.00;28.70;;;;;;5031940;28;45821;-63
2022/03/12 00:39:22;;;;;;;7.50;4.83;;;0.00;28.90;;;;;;5030685;28;46347;-63
2022/03/12 00:41:48;;;;;;;9.13;5.10;;;0.00;28.90;;;;;;5028600;28;46325;-63
2022/03/12 00:44:19;;;;;;;9.10;4.97;;;-0.10;28.90;;;;;;5028607;28;45887;-63
2022/03/12 00:46:45;;;;;;;9.38;5.30;;;-0.10;29.00;;;;;;5035134;28;46374;-63
2022/03/12 00:49:11;;;;;;;15.77;5.30;;;-0.10;29.00;;;;;;5035367;28;46443;-62
2022/03/12 00:51:38;;;;;;;7.83;3.83;;;-0.10;29.20;;;;;;5028667;28;46407;-63
2022/03/12 00:54:04;;;;;;;7.20;4.80;;;-0.10;29.30;;;;;;5033644;28;46358;-63
2022/03/12 00:56:30;;;;;;;8.95;4.50;;;-0.10;29.20;;;;;;5035218;28;46380;-64
2022/03/12 00:58:57;;;;;;;9.57;4.63;;;-0.10;29.20;;;;;;5031408;28;46782;-62
2022/03/12 01:01:25;;;;;;;11.90;4.10;;;-0.10;29.20;;;;;;5027687;28;46463;-63
2022/03/12 01:03:51;;;;;;;9.75;4.50;;;-0.10;29.20;;;;;;5028986;28;46357;-64
2022/03/12 01:06:18;;;;;;;16.33;5.10;;;0.00;29.20;;;;;;5028221;28;45821;-64
2022/03/12 01:08:45;;;;;;;8.88;4.43;;;-0.10;29.20;;;;;;5030343;28;46419;-64
2022/03/12 01:11:11;;;;;;;10.60;4.25;;;-0.20;29.40;;;;;;5026279;28;46410;-64
2022/03/12 01:13:38;;;;;;;8.20;4.60;;;-0.20;29.30;;;;;;5033167;28;46426;-64
2022/03/12 01:16:05;;;;;;;19.08;5.85;;;-0.20;29.20;;;;;;5027978;28;46389;-65
2022/03/12 01:18:31;;;;;;;11.38;5.97;;;-0.20;29.20;;;;;;5027602;28;46362;-64
2022/03/12 01:21:11;;;;;;;11.20;5.80;;;-0.20;29.20;;;;;;5030493;28;46447;-64
2022/03/12 01:23:37;;;;;;;17.00;5.45;;;-0.30;29.20;;;;;;5028883;28;46513;-64
2022/03/12 01:26:02;;;;;;;11.37;5.27;;;-0.40;29.30;;;;;;5029401;28;46469;-64
2022/03/12 01:28:28;;;;;;;10.53;5.27;;;-0.50;29.40;;;;;;5030480;28;46334;-64
2022/03/12 01:30:54;;;;;;;9.97;5.37;;;-0.60;29.60;;;;;;5025895;28;47561;-64
2022/03/12 01:33:20;;;;;;;10.75;5.40;;;-0.70;29.70;;;;;;5029422;28;46399;-63
2022/03/12 01:35:45;;;;;;;8.40;4.97;;;-0.80;29.80;;;;;;5031194;28;46289;-64
2022/03/12 01:38:12;;;;;;;11.53;5.20;;;-0.80;29.80;;;;;;5030389;28;46377;-63
2022/03/12 01:40:39;;;;;;;11.18;4.90;;;-0.80;29.70;;;;;;5027552;28;47274;-63
2022/03/12 01:43:06;;;;;;;11.90;5.27;;;-0.80;29.80;;;;;;5028775;28;45855;-65
2022/03/12 01:45:33;;;;;;;8.32;5.22;;;-0.80;29.70;;;;;;5031951;28;46016;-64
2022/03/12 01:48:06;;;;;;;8.75;4.75;;;-0.70;29.80;;;;;;5031859;28;46480;-64
2022/03/12 01:50:37;;;;;;;8.40;4.00;;;-0.70;29.70;;;;;;5031613;28;46363;-64
2022/03/12 01:53:08;;;;;;;8.45;4.55;;;-0.60;29.60;;;;;;5029369;28;46757;-63
2022/03/12 01:55:35;;;;;;;7.85;4.30;;;-0.50;29.60;;;;;;5030488;28;46396;-63
2022/03/12 01:58:02;;;;;;;9.07;4.78;;;-0.50;29.40;;;;;;5033598;28;46350;-64
2022/03/12 02:00:41;;;;;;;8.20;3.90;;;-0.50;29.40;;;;;;5036352;28;46392;-64
2022/03/12 02:03:06;;;;;;;10.57;5.05;;;-0.40;29.30;;;;;;5031878;28;45929;-63
2022/03/12 02:05:34;;;;;;;8.60;4.77;;;-0.40;29.30;;;;;;5034209;28;46473;-63
2022/03/12 02:08:01;;;;;;;13.48;5.43;;;-0.40;29.30;;;;;;5036182;28;46261;-63
2022/03/12 02:10:27;;;;;;;9.52;5.07;;;-0.40;29.30;;;;;;5031864;28;46267;-63
2022/03/12 02:12:54;;;;;;;8.27;4.97;;;-0.40;29.30;;;;;;5028573;28;46693;-62
2022/03/12 02:15:21;;;;;;;8.77;5.18;;;-0.40;29.30;;;;;;5029100;28;46311;-64
2022/03/12 02:17:47;;;;;;;10.05;5.18;;;-0.50;29.40;;;;;;5029581;28;46367;-65
2022/03/12 02:20:16;;;;;;;10.07;4.83;;;-0.50;29.50;;;;;;5025538;28;47176;-64
2022/03/12 02:22:42;;;;;;;8.27;4.85;;;-0.50;29.70;;;;;;5023931;28;46384;-64
2022/03/12 02:25:08;;;;;;;9.30;5.72;;;-0.50;29.80;;;;;;5037543;28;46282;-64
2022/03/12 02:27:34;;;;;;;12.73;5.53;;;-0.50;29.80;;;;;;5039656;28;46345;-63
2022/03/12 02:30:01;;;;;;;11.27;5.57;;;-0.50;29.80;;;;;;5034941;28;46880;-64
2022/03/12 02:32:28;;;;;;;8.18;4.70;;;-0.50;29.80;;;;;;5035492;28;46524;-63
2022/03/12 02:34:56;;;;;;;8.02;4.28;;;-0.50;30.70;;;;;;5032711;28;46289;-64
2022/03/12 02:37:35;;;;;;;8.15;5.00;;;-0.40;29.80;;;;;;5032905;28;46444;-64
2022/03/12 02:40:12;;;;;;;9.15;4.78;;;-0.40;29.70;;;;;;5033075;28;46709;-64
2022/03/12 02:42:39;;;;;;;9.98;4.53;;;-0.40;29.80;;;;;;5026501;28;46856;-64
2022/03/12 02:45:07;;;;;;;15.68;4.40;;;-0.40;29.90;;;;;;5030099;28;46394;-63
2022/03/12 02:47:35;;;;;;;7.68;4.45;;;-0.50;29.90;;;;;;5031073;28;46314;-64
2022/03/12 02:50:06;;;;;;;8.63;4.95;;;-0.50;30.40;;;;;;5030585;28;46353;-64
2022/03/12 02:52:33;;;;;;;10.45;5.25;;;-0.60;30.30;;;;;;5028476;28;46555;-64
2022/03/12 02:55:00;;;;;;;10.57;5.07;;;-0.60;30.40;;;;;;5032232;28;46296;-64
2022/03/12 02:57:27;;;;;;;9.52;4.47;;;-0.60;30.30;;;;;;5031701;28;45839;-64
2022/03/12 03:00:03;;;;;;;10.38;4.70;;;-0.60;30.30;;;;;;5031393;28;48178;-62
2022/03/12 03:02:38;;;;;;;8.52;5.10;;;-0.60;30.20;;;;;;5032296;28;46382;-62
2022/03/12 03:05:06;;;;;;;8.15;4.90;;;-0.60;30.10;;;;;;5027860;28;46469;-64
2022/03/12 03:07:35;;;;;;;7.57;4.70;;;-0.60;30.30;;;;;;5030627;28;46399;-64
2022/03/12 03:10:00;;;;;;;9.68;5.25;;;-0.60;30.20;;;;;;5034367;28;47358;-64
2022/03/12 03:12:27;;;;;;;9.13;5.37;;;-0.60;30.20;;;;;;5031759;28;46303;-64
2022/03/12 03:14:52;;;;;;;9.73;5.05;;;-0.60;30.10;;;;;;5031069;28;46443;-64
2022/03/12 03:17:18;;;;;;;13.37;5.73;;;-0.40;30.10;;;;;;5029455;28;46423;-64
2022/03/12 03:19:45;;;;;;;14.10;6.67;;;-0.60;30.30;;;;;;5034519;28;46474;-64
2022/03/12 03:22:11;;;;;;;18.88;6.60;;;-0.60;30.40;;;;;;5031887;28;46411;-64
2022/03/12 03:24:37;;;;;;;14.30;5.95;;;-0.70;30.20;;;;;;5031700;28;46321;-63
2022/03/12 03:27:03;;;;;;;11.23;6.73;;;-0.60;30.30;;;;;;5026464;28;46441;-64
2022/03/12 03:29:31;;;;;;;9.63;6.65;;;-0.60;30.30;;;;;;5027925;28;46369;-63
2022/03/12 03:32:01;;;;;;;11.25;5.70;;;-0.50;30.40;;;;;;5032522;28;46255;-63
2022/03/12 03:34:27;;;;;;;11.02;6.45;;;-0.50;30.40;;;;;;5030332;28;46450;-64
2022/03/12 03:36:53;;;;;;;11.55;5.13;;;-0.50;30.30;;;;;;5032528;28;46398;-63
2022/03/12 03:39:19;;;;;;;11.73;5.13;;;-0.50;30.40;;;;;;5035321;28;46387;-63
2022/03/12 03:41:44;;;;;;;8.20;4.90;;;-0.50;30.40;;;;;;5030857;28;46326;-64
2022/03/12 03:44:11;;;;;;;7.00;4.63;;;-0.50;30.30;;;;;;5032141;28;45850;-64
2022/03/12 03:46:36;;;;;;;12.98;5.32;;;-0.40;30.50;;;;;;5032762;28;46564;-64
2022/03/12 03:49:04;;;;;;;7.57;4.83;;;-0.40;30.30;;;;;;5031372;28;46594;-64
2022/03/12 03:51:30;;;;;;;8.95;4.90;;;-0.40;30.30;;;;;;5029728;28;46445;-64
2022/03/12 03:53:55;;;;;;;8.63;4.93;;;-0.40;30.10;;;;;;5027228;28;45790;-62
2022/03/12 03:56:21;;;;;;;9.03;4.40;;;-0.40;30.00;;;;;;5028718;28;46346;-62
2022/03/12 03:58:47;;;;;;;8.70;4.60;;;-0.40;30.00;;;;;;5030880;28;46481;-64
2022/03/12 04:01:17;;;;;;;9.60;4.95;;;-0.30;30.10;;;;;;5031168;28;46249;-64
2022/03/12 04:03:51;;;;;;;11.02;5.32;;;-0.30;30.00;;;;;;5026911;28;46358;-64
2022/03/12 04:06:21;;;;;;;9.60;5.40;;;-0.30;30.10;;;;;;5031093;28;46355;-63
2022/03/12 04:08:48;;;;;;;10.27;5.20;;;-0.40;31.30;;;;;;5032668;28;47114;-62
2022/03/12 04:11:34;;;;;;;9.35;5.25;;;-0.40;30.40;;;;;;5033260;28;45902;-65
2022/03/12 04:14:01;;;;;;;9.63;5.35;;;-0.40;30.50;;;;;;5035302;28;46348;-64
2022/03/12 04:16:28;;;;;;;10.30;5.75;;;-0.50;30.40;;;;;;5027257;28;46438;-64
2022/03/12 04:18:55;;;;;;;13.63;5.57;;;-0.50;30.40;;;;;;5028809;28;46352;-64
2022/03/12 04:21:20;;;;;;;13.25;6.55;;;-0.60;30.30;;;;;;5031497;28;46401;-63
2022/03/12 04:23:47;;;;;;;12.43;5.60;;;-0.70;30.40;;;;;;5030752;28;46481;-62
2022/03/12 04:26:13;;;;;;;12.27;6.00;;;-0.70;30.50;;;;;;5029320;28;46572;-64
2022/03/12 04:28:40;;;;;;;11.47;5.20;;;-0.70;30.60;;;;;;5028923;28;46004;-64
2022/03/12 04:31:07;;;;;;;8.10;5.38;;;-0.70;30.80;;;;;;5032288;28;46565;-62
2022/03/12 04:33:33;;;;;;;7.65;4.60;;;-0.70;30.90;;;;;;5029028;28;46794;-63
2022/03/12 04:36:00;;;;;;;11.13;5.40;;;-0.80;30.80;;;;;;5027577;28;46509;-64
2022/03/12 04:38:27;;;;;;;9.60;5.57;;;-0.80;31.00;;;;;;5026254;28;46382;-64
2022/03/12 04:40:56;;;;;;;8.75;5.75;;;-0.70;31.10;;;;;;5028043;28;46747;-64
2022/03/12 04:43:26;;;;;;;15.23;6.57;;;-0.80;31.10;;;;;;5022959;28;46481;-63
2022/03/12 04:45:52;;;;;;;18.15;8.15;;;-0.90;31.20;;;;;;5036795;28;46593;-64
2022/03/12 04:48:21;;;;;;;12.75;7.22;;;-0.90;31.50;;;;;;5028201;28;46392;-63
2022/03/12 04:50:48;;;;;;;13.73;6.43;;;-0.90;31.40;;;;;;5032240;28;46416;-64
2022/03/12 04:53:15;;;;;;;11.52;6.18;;;-0.90;31.60;;;;;;5030480;28;46381;-63
2022/03/12 04:55:43;;;;;;;11.15;6.35;;;-0.90;31.50;;;;;;5032062;28;46406;-63
2022/03/12 04:58:09;;;;;;;14.15;6.35;;;-0.90;31.50;;;;;;5030332;28;46220;-64
2022/03/12 05:00:38;;;;;;;12.18;5.70;;;-0.90;31.50;;;;;;5029077;28;45901;-64
2022/03/12 05:03:15;;;;;;;10.88;5.97;;;-0.90;31.60;;;;;;5026716;28;46457;-63
2022/03/12 05:05:44;;;;;;;9.85;6.25;;;-0.80;31.70;;;;;;5024826;28;46743;-63
2022/03/12 05:08:15;;;;;;;9.63;5.90;;;-0.80;31.70;;;;;;5024043;28;46326;-63
2022/03/12 05:10:43;;;;;;;11.38;6.57;;;-0.80;31.60;;;;;;5028075;28;46356;-63
2022/03/12 05:13:11;;;;;;;12.52;6.68;;;-0.80;31.70;;;;;;5033668;28;46239;-63
2022/03/12 05:15:40;;;;;;;10.90;5.85;;;-0.80;31.70;;;;;;5035501;28;46530;-64
2022/03/12 05:18:08;;;;;;;10.73;6.28;;;-0.80;31.80;;;;;;5033385;28;48073;-64
2022/03/12 05:20:39;;;;;;;12.90;6.53;;;-0.80;31.80;;;;;;5032509;28;46370;-64
2022/03/12 05:23:07;;;;;;;12.07;6.45;;;-0.80;31.90;;;;;;5032863;28;46320;-63
2022/03/12 05:25:41;;;;;;;11.73;6.20;;;-0.90;32.10;;;;;;5035292;28;46411;-64
2022/03/12 05:28:14;;;;;;;9.88;6.15;;;-0.90;32.10;;;;;;5031389;28;47365;-64
2022/03/12 05:30:40;;;;;;;11.77;6.70;;;-0.90;32.20;;;;;;5032196;28;45984;-64
2022/03/12 05:33:06;;;;;;;11.30;6.60;;;-0.90;32.20;;;;;;5031631;28;46466;-63
2022/03/12 05:35:32;;;;;;;22.10;9.20;;;-0.90;32.20;;;;;;5035986;28;45931;-63
2022/03/12 05:37:58;;;;;;;12.43;6.85;;;-0.90;32.30;;;;;;5030551;28;46710;-63
2022/03/12 05:40:29;;;;;;;12.13;6.43;;;-0.80;32.40;;;;;;5032431;28;46450;-64
2022/03/12 05:42:55;;;;;;;14.20;6.63;;;-0.80;32.30;;;;;;5030239;28;46418;-62
2022/03/12 05:45:23;;;;;;;14.95;7.63;;;-0.80;32.40;;;;;;5031820;28;46382;-65
2022/03/12 05:47:50;;;;;;;13.18;6.90;;;-0.90;32.50;;;;;;5035871;28;47292;-64
2022/03/12 05:50:16;;;;;;;11.98;6.88;;;-0.80;32.60;;;;;;5030867;28;46517;-63
2022/03/12 05:52:49;;;;;;;11.85;5.95;;;-0.80;32.50;;;;;;5027067;28;46352;-62
2022/03/12 05:55:21;;;;;;;11.80;6.10;;;-0.80;32.70;;;;;;5040619;28;46442;-64
2022/03/12 05:57:48;;;;;;;12.93;6.90;;;-0.80;32.60;;;;;;5034869;28;46181;-64
2022/03/12 06:00:16;;;;;;;17.80;6.88;;;-0.80;32.70;;;;;;5035876;28;46247;-63
2022/03/12 06:02:49;;;;;;;13.75;6.63;;;-0.70;32.80;;;;;;5033468;28;46420;-63
2022/03/12 06:05:14;;;;;;;12.13;6.65;;;-0.70;32.70;;;;;;5035711;28;46362;-63
2022/03/12 06:07:45;;;;;;;14.50;7.17;;;-0.70;32.80;;;;;;5034157;28;46440;-64
2022/03/12 06:10:17;;;;;;;19.52;7.57;;;-0.70;33.00;;;;;;5033711;28;46740;-64
2022/03/12 06:12:43;;;;;;;15.02;7.82;;;-0.60;32.90;;;;;;5031889;28;46257;-64
2022/03/12 06:15:17;;;;;;;15.45;8.02;;;-0.40;32.70;;;;;;5032691;28;46535;-64
2022/03/12 06:17:44;;;;;;;15.98;7.40;;;-0.30;32.60;;;;;;5031474;28;46386;-64
2022/03/12 06:20:11;;;;;;;13.43;7.43;;;-0.20;32.30;;;;;;5030177;28;46636;-64
2022/03/12 06:22:37;;;;;;;11.85;6.70;;;-0.10;32.10;;;;;;5032806;28;45914;-64
2022/03/12 06:25:05;;;;;;;13.40;7.43;;;0.10;32.20;;;;;;5033643;28;46589;-64
2022/03/12 06:27:30;;;;;;;14.32;7.07;;;0.20;32.10;;;;;;5025791;28;46405;-63
2022/03/12 06:29:56;;;;;;;9.73;6.50;;;0.30;32.10;;;;;;5028272;28;46589;-63
2022/03/12 06:32:22;;;;;;;14.20;6.73;;;0.40;31.70;;;;;;5023347;28;46338;-64
2022/03/12 06:34:48;;;;;;;11.00;5.95;;;0.50;31.80;;;;;;5026941;28;46842;-62
2022/03/12 06:37:14;;;;;;;12.33;6.00;;;0.70;31.90;;;;;;5028244;28;46352;-63
2022/03/12 06:39:39;;;;;;;10.93;6.77;;;0.80;31.60;;;;;;5028401;28;46573;-63
2022/03/12 06:42:06;;;;;;;8.63;5.20;;;0.80;31.90;;;;;;5025764;28;46411;-64
2022/03/12 06:44:33;;;;;;;13.52;5.65;;;0.80;31.90;;;;;;5026969;28;46412;-63
2022/03/12 06:47:03;;;;;;;16.45;5.88;;;1.00;31.70;;;;;;5031420;28;46651;-63
2022/03/12 06:49:29;;;;;;;9.73;5.50;;;1.20;31.80;;;;;;5027990;28;46486;-63
2022/03/12 06:51:56;;;;;;;8.33;5.73;;;1.20;31.80;;;;;;5027899;28;46839;-63
2022/03/12 06:54:22;;;;;;;15.63;5.65;;;1.30;31.90;;;;;;5027230;28;46284;-63
2022/03/12 06:56:48;;;;;;;12.80;5.75;;;1.60;31.30;;;;;;5031127;28;46397;-63
2022/03/12 06:59:14;;;;;;;10.77;5.53;;;1.80;31.00;;;;;;5027621;28;46379;-63
2022/03/12 07:01:40;;;;;;;11.98;5.75;;;1.90;31.00;;;;;;5027077;28;46533;-63
2022/03/12 07:04:06;;;;;;;8.20;4.72;;;2.10;30.80;;;;;;5026313;28;46391;-63
2022/03/12 07:06:36;;;;;;;9.25;5.10;;;2.20;30.50;;;;;;5028406;28;46500;-63
2022/03/12 07:09:01;;;;;;;9.65;5.45;;;2.50;30.60;;;;;;5031977;28;46526;-63
2022/03/12 07:11:28;;;;;;;12.50;5.23;;;2.60;29.90;;;;;;5030258;28;46307;-63
2022/03/12 07:13:53;;;;;;;10.27;5.82;;;2.80;29.70;;;;;;5031991;28;45745;-63
2022/03/12 07:16:19;;;;;;;14.67;5.67;;;3.10;29.40;;;;;;5033117;28;47246;-63
2022/03/12 07:18:44;;;;;;;12.87;6.03;;;3.40;29.10;;;;;;5031728;28;46807;-64
2022/03/12 07:21:11;;;;;;;10.60;5.90;;;3.60;28.90;;;;;;5029666;28;45787;-65
2022/03/12 07:23:36;;;;;;;9.55;4.60;;;3.80;28.90;;;;;;5029096;28;46471;-64
2022/03/12 07:26:02;;;;;;;12.40;6.40;;;3.90;28.20;;;;;;5027466;28;46423;-65
2022/03/12 07:28:28;;;;;;;11.50;5.47;;;4.00;28.60;;;;;;5027064;28;46533;-65
2022/03/12 07:30:54;;;;;;;13.65;6.03;;;3.90;28.90;;;;;;5026490;28;46432;-64
2022/03/12 07:33:20;;;;;;;11.10;6.23;;;3.80;29.00;;;;;;5034028;28;46304;-66
2022/03/12 07:35:46;;;;;;;12.97;6.60;;;3.80;29.10;;;;;;5038528;28;47103;-66
2022/03/12 07:38:12;;;;;;;15.90;7.17;;;4.00;29.00;;;;;;5030921;28;46353;-65
2022/03/12 07:40:40;;;;;;;10.00;6.33;;;4.20;28.60;;;;;;5032983;28;46380;-67
2022/03/12 07:43:06;;;;;;;12.90;5.90;;;4.40;28.40;;;;;;5030206;28;46692;-68
2022/03/12 07:45:32;;;;;;;9.07;5.95;;;4.80;28.40;;;;;;5029521;28;46431;-67
2022/03/12 07:47:58;;;;;;;11.10;6.23;;;5.10;28.10;;;;;;5032130;28;46652;-65
2022/03/12 07:50:26;;;;;;;14.90;6.77;;;5.10;28.10;;;;;;5032703;28;46453;-66
2022/03/12 07:52:52;;;;;;;14.80;7.40;;;5.10;27.90;;;;;;5026076;28;46571;-66
2022/03/12 07:55:18;;;;;;;17.27;6.77;;;5.00;28.10;;;;;;5030891;28;47298;-66
2022/03/12 07:57:43;;;;;;;12.90;7.90;;;4.80;28.30;;;;;;5029286;28;46373;-66
2022/03/12 08:00:12;;;;;;;15.43;7.63;;;4.90;28.00;;;;;;5032259;28;46419;-68
2022/03/12 08:02:39;;;;;;;14.07;8.23;;;5.00;27.90;;;;;;5031411;28;46489;-66
2022/03/12 08:05:05;;;;;;;12.43;8.03;;;5.10;28.00;;;;;;5029820;28;47133;-66
2022/03/12 08:07:32;;;;;;;11.73;7.10;;;5.10;28.00;;;;;;5029510;28;46451;-66
2022/03/12 08:09:59;;;;;;;14.67;8.13;;;5.30;27.90;;;;;;5028821;28;46264;-66
2022/03/12 08:12:27;;;;;;;14.13;8.20;;;5.30;27.90;;;;;;5026119;28;46289;-66
2022/03/12 08:14:53;;;;;;;13.90;7.80;;;5.40;27.90;;;;;;5027541;28;47084;-66
2022/03/12 08:17:19;;;;;;;14.33;8.47;;;5.40;28.00;;;;;;5032247;28;46492;-67
2022/03/12 08:19:46;;;;;;;15.90;8.60;;;5.40;27.60;;;;;;5027805;28;46047;-67
2022/03/12 08:22:12;;;;;;;14.40;7.70;;;5.50;27.60;;;;;;5027234;28;46634;-67
2022/03/12 08:24:38;;;;;;;24.40;8.43;;;5.70;27.60;;;;;;5029298;28;46354;-67
2022/03/12 08:27:05;;;;;;;21.13;8.80;;;5.80;27.70;;;;;;5031326;28;46359;-65
2022/03/12 08:29:31;;;;;;;16.20;8.53;;;5.80;27.80;;;;;;5028769;28;46533;-67
2022/03/12 08:31:57;;;;;;;17.97;9.83;;;5.80;27.80;;;;;;5029353;28;46509;-68
2022/03/12 08:34:23;;;;;;;15.50;8.60;;;5.90;27.80;;;;;;5033828;28;46424;-68
2022/03/12 08:36:49;;;;;;;27.50;9.23;;;6.00;27.80;;;;;;5029238;28;46355;-68
2022/03/12 08:39:15;;;;;;;15.73;9.40;;;6.10;27.60;;;;;;5025435;28;46533;-66
2022/03/12 08:41:41;;;;;;;19.90;9.30;;;6.10;27.60;;;;;;5030566;28;46442;-67
2022/03/12 08:44:09;;;;;;;24.27;9.60;;;6.20;27.60;;;;;;5026611;28;46421;-66
2022/03/12 08:46:36;;;;;;;19.40;10.17;;;6.30;27.70;;;;;;5031627;28;46388;-69
2022/03/12 08:49:03;;;;;;;24.57;10.20;;;6.40;27.50;;;;;;5031103;28;46564;-66
2022/03/12 08:51:29;;;;;;;20.80;9.83;;;6.50;27.60;;;;;;5029586;28;46619;-66
2022/03/12 08:53:55;;;;;;;20.10;10.63;;;6.60;27.50;;;;;;5029056;28;47046;-67
2022/03/12 08:56:21;;;;;;;18.40;10.20;;;6.60;27.50;;;;;;5030569;28;46443;-67
2022/03/12 08:58:47;;;;;;;65.87;26.30;;;6.30;27.40;;;;;;5029328;28;46406;-68
2022/03/12 09:01:13;;;;;;;24.20;11.10;;;6.30;27.70;;;;;;5027577;28;46741;-68
2022/03/12 09:03:39;;;;;;;21.83;10.90;;;6.30;27.80;;;;;;5025651;28;46373;-67
2022/03/12 09:06:07;;;;;;;22.80;12.10;;;6.50;27.60;;;;;;5029088;28;46310;-66
2022/03/12 09:08:34;;;;;;;24.83;10.93;;;6.80;27.40;;;;;;5028250;28;46383;-66
2022/03/12 09:11:01;;;;;;;18.70;11.13;;;7.00;27.10;;;;;;5029564;28;46583;-66
2022/03/12 09:13:27;;;;;;;17.70;10.03;;;6.90;27.30;;;;;;5027640;28;47155;-66
2022/03/12 09:15:53;;;;;;;17.90;9.83;;;7.00;27.40;;;;;;5029891;28;46351;-68
2022/03/12 09:18:20;;;;;;;20.83;10.03;;;7.10;27.00;;;;;;5031086;28;46571;-68
2022/03/12 09:20:47;;;;;;;19.67;9.97;;;7.20;26.90;;;;;;5028681;28;46501;-67
2022/03/12 09:23:21;;;;;;;32.50;16.70;;;7.10;26.90;;;;;;5029398;28;46276;-68
2022/03/12 09:25:49;;;;;;;16.60;8.90;;;7.10;26.80;;;;;;5027493;28;46440;-68
2022/03/12 09:28:16;;;;;;;16.70;9.20;;;7.20;26.90;;;;;;5030883;28;46386;-67
2022/03/12 09:30:43;;;;;;;23.07;9.77;;;7.30;26.90;;;;;;5027920;28;46426;-69
2022/03/12 09:33:09;;;;;;;23.30;10.83;;;7.40;26.90;;;;;;5030663;28;46370;-67
2022/03/12 09:35:35;;;;;;;22.63;11.10;;;7.40;26.70;;;;;;5028817;28;46474;-66
2022/03/12 09:38:02;;;;;;;17.07;10.33;;;7.60;26.30;;;;;;5026867;28;46414;-69
2022/03/12 09:40:29;;;;;;;25.20;10.87;;;7.70;26.40;;;;;;5028628;28;46355;-66
2022/03/12 09:42:55;;;;;;;18.70;9.90;;;7.80;26.40;;;;;;5028868;28;46414;-70
2022/03/12 09:45:22;;;;;;;17.87;10.73;;;7.80;26.10;;;;;;5025870;28;46412;-65
2022/03/12 09:47:49;;;;;;;21.17;10.00;;;8.00;25.60;;;;;;5026724;28;46338;-67
2022/03/12 09:50:14;;;;;;;21.50;10.10;;;8.00;25.60;;;;;;5028606;28;46569;-67
2022/03/12 09:52:41;;;;;;;18.13;11.00;;;8.10;25.60;;;;;;5027282;28;46392;-67
2022/03/12 09:55:07;;;;;;;20.23;10.63;;;8.10;25.60;;;;;;5025412;28;46481;-66
2022/03/12 09:57:34;;;;;;;106.27;45.43;;;8.00;25.60;;;;;;5032718;28;46417;-66
2022/03/12 10:00:07;;;;;;;20.30;10.23;;;8.10;25.60;;;;;;5032274;28;46507;-66
2022/03/12 10:02:33;;;;;;;24.40;10.50;;;8.20;25.70;;;;;;5028820;28;46373;-66
2022/03/12 10:04:58;;;;;;;20.73;9.70;;;8.10;25.60;;;;;;5024165;28;46058;-68
2022/03/12 10:07:24;;;;;;;23.23;9.53;;;8.10;25.60;;;;;;5031879;28;46438;-66
2022/03/12 10:09:50;;;;;;;18.27;10.33;;;8.20;25.70;;;;;;5026631;28;45959;-66
2022/03/12 10:12:15;;;;;;;19.90;11.03;;;8.40;25.80;;;;;;5031316;28;46421;-69
2022/03/12 10:14:41;;;;;;;24.63;10.13;;;8.40;25.40;;;;;;5027501;28;45904;-66
2022/03/12 10:17:07;;;;;;;41.73;16.77;;;8.40;25.00;;;;;;5031184;28;46348;-65
2022/03/12 10:19:36;;;;;;;20.83;11.27;;;8.50;25.10;;;;;;5036891;28;46365;-66
2022/03/12 10:22:02;;;;;;;19.73;10.40;;;8.70;25.20;;;;;;5036239;28;47000;-68
2022/03/12 10:24:28;;;;;;;29.57;11.67;;;8.60;24.50;;;;;;5033309;28;46518;-67
2022/03/12 10:26:54;;;;;;;18.43;11.37;;;8.60;24.50;;;;;;5034457;28;46390;-65
2022/03/12 10:29:19;;;;;;;29.63;13.23;;;8.70;24.80;;;;;;5034094;28;46624;-65
2022/03/12 10:31:45;;;;;;;21.03;11.27;;;8.80;24.80;;;;;;5028731;28;46348;-66
2022/03/12 10:34:18;;;;;;;24.83;13.40;;;8.80;24.80;;;;;;5034464;28;46433;-66
2022/03/12 10:36:44;;;;;;;22.73;12.20;;;8.90;24.70;;;;;;5034085;28;46442;-66
2022/03/12 10:39:11;;;;;;;25.50;11.17;;;8.90;24.70;;;;;;5030321;28;46739;-66
2022/03/12 10:41:37;;;;;;;51.50;21.60;;;8.90;23.90;;;;;;5030411;28;46407;-66
2022/03/12 10:44:04;;;;;;;19.27;10.63;;;9.00;24.30;;;;;;5030333;28;46363;-66
2022/03/12 10:46:32;;;;;;;20.43;10.37;;;9.00;23.70;;;;;;5028785;28;46384;-66
2022/03/12 10:49:00;;;;;;;20.83;11.00;;;9.00;24.20;;;;;;5027697;28;46398;-65
2022/03/12 10:51:29;;;;;;;23.67;11.13;;;9.10;24.10;;;;;;5026251;28;46467;-67
2022/03/12 10:54:08;;;;;;;22.37;11.30;;;9.20;24.10;;;;;;5028715;28;46470;-67
2022/03/12 10:56:42;;;;;;;30.43;11.67;;;9.20;23.80;;;;;;5030701;28;46435;-65
2022/03/12 10:59:22;;;;;;;21.30;11.70;;;9.20;23.70;;;;;;5032123;28;46386;-66
2022/03/12 11:01:50;;;;;;;26.07;11.60;;;9.40;23.80;;;;;;5026937;28;47160;-66
2022/03/12 11:04:27;;;;;;;21.40;10.57;;;9.40;23.60;;;;;;5029452;28;46545;-66
2022/03/12 11:06:55;;;;;;;21.93;12.13;;;9.40;23.60;;;;;;5022840;28;46785;-65
2022/03/12 11:09:39;;;;;;;22.77;13.37;;;9.60;23.70;;;;;;5024736;28;45932;-65
2022/03/12 11:12:30;;;;;;;22.30;12.60;;;9.50;23.20;;;;;;5023412;28;46378;-64
2022/03/12 11:15:14;;;;;;;24.73;12.03;;;9.50;23.10;;;;;;5029148;28;46469;-65
2022/03/12 11:17:43;;;;;;;19.90;11.27;;;9.70;23.30;;;;;;5022164;28;46490;-66
2022/03/12 11:20:23;;;;;;;35.97;12.03;;;9.80;23.00;;;;;;5023530;28;46524;-66
2022/03/12 11:22:49;;;;;;;24.27;10.27;;;9.80;22.40;;;;;;5022870;28;47338;-63
2022/03/12 11:25:20;;;;;;;36.23;10.63;;;9.80;22.50;;;;;;5028370;28;46388;-64
2022/03/12 11:27:49;;;;;;;24.53;12.67;;;9.80;22.60;;;;;;5030757;28;46406;-64
2022/03/12 11:30:20;;;;;;;26.23;11.30;;;9.90;22.50;;;;;;5030556;28;45776;-64
2022/03/12 11:32:46;;;;;;;21.60;11.57;;;10.00;21.80;;;;;;5030555;28;47939;-64
2022/03/12 11:35:15;;;;;;;21.90;11.67;;;10.00;21.60;;;;;;5035799;28;46486;-65
2022/03/12 11:37:42;;;;;;;23.40;11.70;;;10.00;21.40;;;;;;5030777;28;46584;-64
2022/03/12 11:40:18;;;;;;;23.57;12.03;;;10.10;21.40;;;;;;5033249;28;46597;-65
2022/03/12 11:42:44;;;;;;;21.50;11.43;;;10.10;21.20;;;;;;5032560;28;46621;-65
2022/03/12 11:45:15;;;;;;;19.20;11.83;;;10.10;21.20;;;;;;5031818;28;46441;-65
2022/03/12 11:47:45;;;;;;;20.37;12.30;;;10.10;21.10;;;;;;5032086;28;46255;-63
2022/03/12 11:50:18;;;;;;;19.50;11.53;;;10.30;21.20;;;;;;5026759;28;46767;-64
2022/03/12 11:52:44;;;;;;;18.63;10.97;;;10.30;20.80;;;;;;5027742;28;47121;-65
2022/03/12 11:55:21;;;;;;;18.40;10.67;;;10.40;20.80;;;;;;5031995;28;46415;-64
2022/03/12 11:57:48;;;;;;;23.30;11.20;;;10.40;20.70;;;;;;5030507;28;46770;-66
2022/03/12 12:00:25;;;;;;;21.43;11.07;;;10.40;20.80;;;;;;5026367;28;46300;-65
2022/03/12 12:02:52;;;;;;;25.80;10.70;;;10.40;20.70;;;;;;5030328;28;46486;-65
2022/03/12 12:05:19;;;;;;;20.93;11.60;;;10.40;20.70;;;;;;5032496;28;45815;-66
2022/03/12 12:07:47;;;;;;;24.73;11.40;;;10.50;20.60;;;;;;5027640;28;46557;-67
2022/03/12 12:10:15;;;;;;;24.87;11.53;;;10.40;20.50;;;;;;5027552;28;46805;-66
2022/03/12 12:12:49;;;;;;;21.80;11.33;;;10.50;20.30;;;;;;5027473;28;47019;-65
2022/03/12 12:15:17;;;;;;;22.33;11.50;;;10.70;20.10;;;;;;5031578;28;46302;-68
2022/03/12 12:17:44;;;;;;;19.77;12.00;;;10.70;19.60;;;;;;5028930;28;46542;-68
2022/03/12 12:20:13;;;;;;;22.87;11.27;;;10.60;19.70;;;;;;5030967;28;46622;-67
2022/03/12 12:22:39;;;;;;;22.47;11.20;;;10.70;19.90;;;;;;5025801;28;46551;-68
2022/03/12 12:25:06;;;;;;;22.50;11.30;;;10.70;20.20;;;;;;5028673;28;45878;-66
2022/03/12 12:27:49;;;;;;;19.97;11.20;;;10.80;20.10;;;;;;5029065;28;46702;-69
2022/03/12 12:30:38;;;;;;;19.57;12.13;;;10.70;19.70;;;;;;5024329;28;46400;-66
2022/03/12 12:33:31;;;;;;;21.17;10.70;;;10.70;19.70;;;;;;5026427;28;46739;-66
2022/03/12 12:36:06;;;;;;;19.40;11.63;;;10.70;19.90;;;;;;5026502;28;46413;-67
2022/03/12 12:38:31;;;;;;;18.83;10.70;;;10.80;19.60;;;;;;5028505;28;46334;-70
2022/03/12 12:40:59;;;;;;;20.43;11.17;;;10.90;19.50;;;;;;5037919;28;46473;-67
2022/03/12 12:44:05;;;;;;;20.87;11.90;;;10.90;19.00;;;;;;5037137;28;47936;-66